Atlanta, GA

5:33 PM EST on February 12, 2016 (GMT -0500)
Chastain | | Change Station
CLOSE
Current Station
Personal Weather Station
Location: Atlanta, GA
Elevation: 905 ft
Nearby Weather Stations

Elev 905 ft 33.87 °N, 84.40 °W | Updated 13 seconds ago

Clear
Clear
58.3 °F
Feels Like 58.3 °F
N
7.2
Wind Variable Wind from WNW
Gusts 11.6 mph

Today
High -- | Low -- °F
--% Chance of Precip.
Yesterday
High -- | Low -- °F
Precip. -- in
Pressure 30.06 in
Visibility 10.0 miles
Clouds Clear
Dew Point 29 °F
Humidity 32%
Rainfall 0.00 in
Snow Depth Not available.
7:25 AM 6:18 PM
Waxing Crescent, 24% visible
METAR KPDK 122153Z 28016G25KT 10SM CLR 14/00 A3004 RMK AO2 SLP177 T01440000
Pressure 30.06 in
Visibility 10.0 miles
Clouds Clear
Dew Point 29 °F
Humidity 32%
Rainfall 0.00 in
Snow Depth Not available.
7:25 AM 6:18 PM
Waxing Crescent, 24% visible
METAR KPDK 122153Z 28016G25KT 10SM CLR 14/00 A3004 RMK AO2 SLP177 T01440000

10-Day Weather Forecast

Almanac

Astronomy

Feb. 12, 2016 Rise Set
Actual Time
Civil Twilight
Nautical Twilight
Astronomical Twilight
Moon
Length of Visible Light
Length of Day
Tomorrow will be .
, % of the Moon is Illuminated

Today's Extremes

State Highs State Lows

Community

WunderPhotos

Upload Photos

1,892,422 photos uploaded!

WunderBlog® & News

Nearby

Air Quality

  Air Quality AQ Index Pollutant
Not available.

Snow Depth

Station Depth Elevation

Earthquake Activity

City Distance Mag. Time & Date
Minimum magnitude displayed is 2.5.

Coastal Water Temperatures

Place Temperature

Stations

Nearby Weather Stations

Station Location Temp. Windchill Dew Point Humidity Wind Precip. Elev Updated Type
                   

Watches & Warnings

There are currently no watches in effect.